Charter Quote
Worldwide +1-877-727-2538 Call
Select Language Lang
SAFETY RELIABILITY EXPERIENCE

Private Jet Charter Services - Dongsheng (ZBDS)

Paramount Business Jets offers private jet charter flights and luxury airliner charters to and from Dongsheng.

AIRPORT INFORMATION
ICAOZBDS
IATADSN
LOCATIONDongsheng, China
FACILITY TYPEAIRPORT

At Paramount Business Jets you can hire chartered private jets to and from Dongsheng with as little as 4 hours of notice. All flights booked via Paramount Business Jets are operated by certified direct air carriers that meet and exceed the FAA part 135 and 121 protocol or a foreign equivalent safety authority. Furthermore, Paramount Business Jets subscribes to ARGUS for their third party safety checks of operators, aircraft, and crews prior each and every flight to and from Dongsheng and worldwide.

  • Quote a trip using Dongsheng or call us 24/7 - 365 days a year at +1-877-727-2538.
Questions? Call +1-877-727-2538

METAR Weather Data at Dongsheng, ZBDS, DSN

STATIONZBDS
OBSERVEDMon Oct 9, 02:00 UTC
NOWThu Nov 14, 17:06 UTC
AGE18399:06 hr ago
WINDNE at 18 mph
VISIBILITY16 miles
CONDITIONSlight rain
CLOUDSscattered clouds
TEMP37°F (3°C)
WIND CHILL27°F (-3°C)
DEWPT37°F (3°C)
HUMIDITY100%
BAROMETER1026 hPa (30.3 in Hg)
METARZBDS 090200Z 04008MPS 9999 -RA SCT007 SCT020 03/03 Q1026 NOSIG

Call us on +1-877-727-2538 (24 Hours), Check our Pricing, or Get a Quick Quote.

Find Airports Near any Location

Processing
...